createdAt,value
2022-10-06T00:01:48.546Z,99908.83
2022-10-06T00:11:54.487Z,99906.88
2022-10-06T00:22:00.442Z,99904.53
2022-10-06T00:32:06.604Z,99903.35
2022-10-06T00:42:25.858Z,99903.66
2022-10-06T00:52:33.747Z,99893.54
2022-10-06T01:02:40.653Z,99889.50
2022-10-06T01:12:46.721Z,99885.46
2022-10-06T01:22:57.451Z,99879.34
2022-10-06T01:33:03.725Z,99879.02
2022-10-06T01:43:09.536Z,99880.55
2022-10-06T01:53:15.702Z,99873.85
2022-10-06T02:03:21.357Z,99879.73
2022-10-06T02:13:30.059Z,99889.53
2022-10-06T02:23:36.118Z,99889.79
2022-10-06T02:33:42.664Z,99900.33
2022-10-06T02:43:48.373Z,99905.15
2022-10-06T02:53:54.512Z,99907.03
2022-10-06T03:04:00.540Z,99913.91
2022-10-06T03:14:07.159Z,99923.96
2022-10-06T03:24:13.549Z,99926.54
2022-10-06T03:34:19.236Z,99929.08
2022-10-06T03:44:24.921Z,99941.70
2022-10-06T03:54:30.932Z,99944.14
2022-10-06T04:04:36.936Z,99946.28
2022-10-06T04:14:42.844Z,99965.25
2022-10-06T04:24:48.852Z,99972.84
2022-10-06T04:34:55.165Z,99979.25
2022-10-06T04:45:00.936Z,99987.66
2022-10-06T04:55:07.853Z,99999.98
2022-10-06T05:05:13.633Z,100005.55
2022-10-06T05:15:19.579Z,100008.84
2022-10-06T05:25:25.381Z,100019.51
2022-10-06T05:35:31.054Z,100031.21
2022-10-06T05:45:36.856Z,100046.65
2022-10-06T05:55:43.482Z,100060.89
2022-10-06T06:05:49.237Z,100084.23
2022-10-06T06:16:04.469Z,100095.02
2022-10-06T06:26:13.240Z,100111.61
2022-10-06T06:36:21.424Z,100127.12
2022-10-06T06:46:26.718Z,100148.52
2022-10-06T06:56:35.066Z,100161.73
2022-10-06T07:06:42.515Z,100167.30
2022-10-06T07:17:06.512Z,100174.15
2022-10-06T07:27:12.185Z,100183.44
2022-10-06T07:37:18.731Z,100184.08
2022-10-06T07:47:24.474Z,100188.65
2022-10-06T07:57:35.601Z,100190.91
2022-10-06T08:07:41.245Z,100203.22
2022-10-06T08:17:47.351Z,100208.00
2022-10-06T08:27:53.701Z,100208.84
2022-10-06T08:37:59.609Z,100216.54
2022-10-06T08:48:10.561Z,100223.91
2022-10-06T08:58:35.634Z,100230.76
2022-10-06T09:08:51.048Z,100242.14
2022-10-06T09:19:08.708Z,100256.44
2022-10-06T09:29:18.649Z,100271.28
2022-10-06T09:39:26.982Z,100289.41
2022-10-06T09:49:32.780Z,100313.08
2022-10-06T09:59:43.788Z,100328.20
2022-10-06T10:09:49.538Z,100343.22
2022-10-06T10:19:56.626Z,100358.52
2022-10-06T10:30:09.348Z,100358.67
2022-10-06T10:40:33.935Z,100370.52
2022-10-06T10:50:50.629Z,100369.45
2022-10-06T11:01:02.573Z,100378.59
2022-10-06T11:11:17.056Z,100373.70
2022-10-06T11:21:28.380Z,100383.98
2022-10-06T11:31:42.948Z,100397.40
2022-10-06T11:41:53.621Z,100400.25
2022-10-06T11:52:20.001Z,100406.38
2022-10-06T12:02:41.638Z,100423.39
2022-10-06T12:13:06.775Z,100419.77
2022-10-06T12:23:24.720Z,100429.48
2022-10-06T12:33:40.572Z,100441.77
2022-10-06T12:44:00.843Z,100463.05
2022-10-06T12:54:17.279Z,100472.66
2022-10-06T13:04:43.117Z,100483.30
2022-10-06T13:14:49.035Z,100488.43
2022-10-06T13:25:02.690Z,100500.79
2022-10-06T13:35:12.285Z,100505.41
2022-10-06T13:45:18.855Z,100522.66
2022-10-06T13:55:26.367Z,100516.59
2022-10-06T14:05:36.580Z,100515.82
2022-10-06T14:15:51.123Z,100523.81
2022-10-06T14:25:56.897Z,100536.02
2022-10-06T14:36:02.934Z,100549.94
2022-10-06T14:46:14.304Z,100555.09
2022-10-06T14:56:20.109Z,100565.48
2022-10-06T15:06:43.459Z,100568.00
2022-10-06T15:16:49.110Z,100578.04
2022-10-06T15:27:12.687Z,100592.73
2022-10-06T15:37:18.391Z,100610.35
2022-10-06T15:47:24.869Z,100619.60
2022-10-06T15:57:31.510Z,100640.98
2022-10-06T16:07:37.280Z,100655.98
2022-10-06T16:17:43.153Z,100665.17
2022-10-06T16:27:48.939Z,100674.89
2022-10-06T16:37:54.786Z,100694.41
2022-10-06T16:48:00.519Z,100700.77
2022-10-06T16:58:06.429Z,100731.04
2022-10-06T17:08:12.079Z,100746.10
2022-10-06T17:18:17.850Z,100756.11
2022-10-06T17:28:24.308Z,100767.91
2022-10-06T17:38:31.968Z,100775.77
2022-10-06T17:48:37.654Z,100777.98
2022-10-06T17:58:46.269Z,100782.94
2022-10-06T18:08:52.519Z,100792.14
2022-10-06T18:19:01.484Z,100807.23
2022-10-06T18:29:07.843Z,100816.10
2022-10-06T18:39:14.358Z,100827.98
2022-10-06T18:49:22.888Z,100842.12
2022-10-06T18:59:31.197Z,100853.77
2022-10-06T19:09:36.795Z,100861.39
2022-10-06T19:19:43.794Z,100863.27
2022-10-06T19:29:54.366Z,100877.35
2022-10-06T19:40:00.392Z,100882.17
2022-10-06T19:50:11.663Z,100886.48
2022-10-06T20:00:19.175Z,100887.81
2022-10-06T20:10:24.731Z,100900.60
2022-10-06T20:20:30.445Z,100911.53
2022-10-06T20:30:39.311Z,100920.95
2022-10-06T20:40:49.276Z,100918.46
2022-10-06T20:50:55.055Z,100921.48
2022-10-06T21:01:07.832Z,100927.66
2022-10-06T21:11:15.160Z,100933.08
2022-10-06T21:21:21.252Z,100934.02
2022-10-06T21:31:29.060Z,100936.23
2022-10-06T21:41:36.976Z,100939.40
2022-10-06T21:51:44.009Z,100942.59
2022-10-06T22:01:50.920Z,100949.72
2022-10-06T22:11:56.630Z,100951.10
2022-10-06T22:22:02.279Z,100948.30
2022-10-06T22:32:07.902Z,100948.57
2022-10-06T22:42:13.588Z,100956.27
2022-10-06T22:52:19.265Z,100958.27
2022-10-06T23:02:24.939Z,100959.84
2022-10-06T23:12:30.658Z,100957.97
2022-10-06T23:22:36.560Z,100964.59
2022-10-06T23:32:42.265Z,100964.75
2022-10-06T23:42:47.949Z,100964.09
2022-10-06T23:52:54.647Z,100965.44
